sensor_id;sensor_type;location;lat;lon;timestamp;pressure;altitude;pressure_sealevel;temperature;humidity
27334;BME280;14817;57.104;-2.094;2022-10-16T00:01:22;97943.25;;;8.23;81.09
27334;BME280;14817;57.104;-2.094;2022-10-16T00:03:50;97947.97;;;8.21;81.45
27334;BME280;14817;57.104;-2.094;2022-10-16T00:06:18;97930.94;;;8.15;81.78
27334;BME280;14817;57.104;-2.094;2022-10-16T00:08:45;97929.69;;;8.11;81.78
27334;BME280;14817;57.104;-2.094;2022-10-16T00:11:16;97932.97;;;8.07;82.19
27334;BME280;14817;57.104;-2.094;2022-10-16T00:13:44;97934.41;;;8.09;81.88
27334;BME280;14817;57.104;-2.094;2022-10-16T00:16:12;97927.03;;;8.05;81.79
27334;BME280;14817;57.104;-2.094;2022-10-16T00:18:39;97935.84;;;8.05;81.79
27334;BME280;14817;57.104;-2.094;2022-10-16T00:21:18;97924.75;;;8.02;81.38
27334;BME280;14817;57.104;-2.094;2022-10-16T00:23:45;97924.13;;;8.00;81.67
27334;BME280;14817;57.104;-2.094;2022-10-16T00:26:14;97925.53;;;7.95;81.61
27334;BME280;14817;57.104;-2.094;2022-10-16T00:28:42;97912.03;;;7.97;81.64
27334;BME280;14817;57.104;-2.094;2022-10-16T00:31:11;97920.19;;;7.95;81.82
27334;BME280;14817;57.104;-2.094;2022-10-16T00:33:39;97909.53;;;7.95;81.56
27334;BME280;14817;57.104;-2.094;2022-10-16T00:36:08;97905.25;;;7.94;81.92
27334;BME280;14817;57.104;-2.094;2022-10-16T00:38:36;97903.19;;;7.90;81.47
27334;BME280;14817;57.104;-2.094;2022-10-16T00:41:06;97893.34;;;7.90;81.26
27334;BME280;14817;57.104;-2.094;2022-10-16T00:46:31;97915.28;;;7.92;81.27
27334;BME280;14817;57.104;-2.094;2022-10-16T00:49:16;97917.31;;;7.84;82.05
27334;BME280;14817;57.104;-2.094;2022-10-16T00:51:47;97931.22;;;7.79;81.69
27334;BME280;14817;57.104;-2.094;2022-10-16T00:54:20;97927.94;;;7.77;82.61
27334;BME280;14817;57.104;-2.094;2022-10-16T00:56:48;97932.03;;;7.73;82.36
27334;BME280;14817;57.104;-2.094;2022-10-16T00:59:20;97931.59;;;7.69;82.62
27334;BME280;14817;57.104;-2.094;2022-10-16T01:01:49;97939.75;;;7.68;82.46
27334;BME280;14817;57.104;-2.094;2022-10-16T01:04:16;97939.34;;;7.57;82.79
27334;BME280;14817;57.104;-2.094;2022-10-16T01:09:25;97938.59;;;7.42;83.75
27334;BME280;14817;57.104;-2.094;2022-10-16T01:12:09;97949.66;;;7.39;84.50
27334;BME280;14817;57.104;-2.094;2022-10-16T01:17:13;97933.28;;;7.42;84.80
27334;BME280;14817;57.104;-2.094;2022-10-16T01:20:11;97926.94;;;7.43;84.63
27334;BME280;14817;57.104;-2.094;2022-10-16T01:22:48;97927.72;;;7.37;84.37
27334;BME280;14817;57.104;-2.094;2022-10-16T01:25:36;97922.41;;;7.37;84.63
27334;BME280;14817;57.104;-2.094;2022-10-16T01:28:06;97918.50;;;7.33;84.93
27334;BME280;14817;57.104;-2.094;2022-10-16T01:30:36;97917.50;;;7.34;84.41
27334;BME280;14817;57.104;-2.094;2022-10-16T01:33:10;97918.31;;;7.34;85.19
27334;BME280;14817;57.104;-2.094;2022-10-16T01:35:42;97915.41;;;7.36;84.64
27334;BME280;14817;57.104;-2.094;2022-10-16T01:38:15;97924.47;;;7.42;84.34
27334;BME280;14817;57.104;-2.094;2022-10-16T01:40:46;97916.69;;;7.40;85.20
27334;BME280;14817;57.104;-2.094;2022-10-16T01:43:26;97903.38;;;7.40;85.00
27334;BME280;14817;57.104;-2.094;2022-10-16T01:45:55;97915.28;;;7.44;85.02
27334;BME280;14817;57.104;-2.094;2022-10-16T01:48:23;97906.47;;;7.44;85.33
27334;BME280;14817;57.104;-2.094;2022-10-16T01:51:03;97917.31;;;7.42;85.12
27334;BME280;14817;57.104;-2.094;2022-10-16T01:53:31;97922.06;;;7.47;85.42
27334;BME280;14817;57.104;-2.094;2022-10-16T01:56:00;97908.31;;;7.43;85.45
27334;BME280;14817;57.104;-2.094;2022-10-16T01:58:30;97927.94;;;7.42;85.29
27334;BME280;14817;57.104;-2.094;2022-10-16T02:01:02;97931.47;;;7.43;85.69
27334;BME280;14817;57.104;-2.094;2022-10-16T02:03:31;97921.78;;;7.35;86.45
27334;BME280;14817;57.104;-2.094;2022-10-16T02:05:59;97923.81;;;7.33;86.13
27334;BME280;14817;57.104;-2.094;2022-10-16T02:08:28;97923.19;;;7.31;86.10
27334;BME280;14817;57.104;-2.094;2022-10-16T02:10:57;97916.66;;;7.33;86.30
27334;BME280;14817;57.104;-2.094;2022-10-16T02:13:32;97900.03;;;7.31;86.86
27334;BME280;14817;57.104;-2.094;2022-10-16T02:16:00;97905.59;;;7.30;86.78
27334;BME280;14817;57.104;-2.094;2022-10-16T02:18:26;97916.22;;;7.30;87.09
27334;BME280;14817;57.104;-2.094;2022-10-16T02:21:00;97920.53;;;7.31;86.96
27334;BME280;14817;57.104;-2.094;2022-10-16T02:23:35;97931.19;;;7.31;86.53
27334;BME280;14817;57.104;-2.094;2022-10-16T02:26:09;97937.09;;;7.26;87.24
27334;BME280;14817;57.104;-2.094;2022-10-16T02:28:45;97933.22;;;7.29;86.31
27334;BME280;14817;57.104;-2.094;2022-10-16T02:31:16;97945.31;;;7.31;86.59
27334;BME280;14817;57.104;-2.094;2022-10-16T02:33:46;97961.50;;;7.30;86.90
27334;BME280;14817;57.104;-2.094;2022-10-16T02:36:14;97961.69;;;7.28;86.82
27334;BME280;14817;57.104;-2.094;2022-10-16T02:38:41;97965.56;;;7.26;86.99
27334;BME280;14817;57.104;-2.094;2022-10-16T02:41:08;97973.69;;;7.18;87.16
27334;BME280;14817;57.104;-2.094;2022-10-16T02:43:35;97983.28;;;7.19;87.38
27334;BME280;14817;57.104;-2.094;2022-10-16T02:46:02;97994.56;;;7.21;86.61
27334;BME280;14817;57.104;-2.094;2022-10-16T02:48:29;97991.22;;;7.12;86.43
27334;BME280;14817;57.104;-2.094;2022-10-16T02:50:55;97997.19;;;7.14;86.81
27334;BME280;14817;57.104;-2.094;2022-10-16T02:53:23;98006.38;;;7.11;87.56
27334;BME280;14817;57.104;-2.094;2022-10-16T02:55:50;98016.34;;;7.03;87.33
27334;BME280;14817;57.104;-2.094;2022-10-16T02:58:16;98019.63;;;7.05;87.00
27334;BME280;14817;57.104;-2.094;2022-10-16T03:00:43;98019.19;;;7.01;86.74
27334;BME280;14817;57.104;-2.094;2022-10-16T03:03:10;98028.06;;;7.08;85.73
27334;BME280;14817;57.104;-2.094;2022-10-16T03:05:37;98032.75;;;7.06;85.66
27334;BME280;14817;57.104;-2.094;2022-10-16T03:08:04;98035.56;;;6.98;85.56
27334;BME280;14817;57.104;-2.094;2022-10-16T03:10:30;98043.03;;;6.88;84.85
27334;BME280;14817;57.104;-2.094;2022-10-16T03:12:57;98040.19;;;6.89;85.05
27334;BME280;14817;57.104;-2.094;2022-10-16T03:15:24;98045.09;;;6.92;84.37
27334;BME280;14817;57.104;-2.094;2022-10-16T03:17:52;98050.81;;;6.89;82.58
27334;BME280;14817;57.104;-2.094;2022-10-16T03:20:19;98066.16;;;6.87;82.95
27334;BME280;14817;57.104;-2.094;2022-10-16T03:22:45;98076.28;;;6.99;82.87
27334;BME280;14817;57.104;-2.094;2022-10-16T03:25:12;98074.38;;;6.92;81.07
27334;BME280;14817;57.104;-2.094;2022-10-16T03:27:39;98071.72;;;6.92;80.08
27334;BME280;14817;57.104;-2.094;2022-10-16T03:30:06;98076.59;;;6.89;79.72
27334;BME280;14817;57.104;-2.094;2022-10-16T03:32:33;98083.50;;;6.83;79.46
27334;BME280;14817;57.104;-2.094;2022-10-16T03:35:01;98090.38;;;6.78;79.81
27334;BME280;14817;57.104;-2.094;2022-10-16T03:37:28;98094.53;;;6.65;80.33
27334;BME280;14817;57.104;-2.094;2022-10-16T03:39:55;98091.25;;;6.63;79.87
27334;BME280;14817;57.104;-2.094;2022-10-16T03:42:22;98094.19;;;6.68;80.12
27334;BME280;14817;57.104;-2.094;2022-10-16T03:44:49;98103.66;;;6.56;79.80
27334;BME280;14817;57.104;-2.094;2022-10-16T03:47:15;98109.63;;;6.43;80.39
27334;BME280;14817;57.104;-2.094;2022-10-16T03:49:47;98111.72;;;6.48;78.95
27334;BME280;14817;57.104;-2.094;2022-10-16T03:52:14;98117.53;;;6.37;79.59
27334;BME280;14817;57.104;-2.094;2022-10-16T03:54:41;98132.19;;;6.32;80.29
27334;BME280;14817;57.104;-2.094;2022-10-16T03:57:07;98145.94;;;6.21;79.83
27334;BME280;14817;57.104;-2.094;2022-10-16T03:59:34;98147.97;;;6.19;80.23
27334;BME280;14817;57.104;-2.094;2022-10-16T04:02:01;98156.50;;;6.15;80.51
27334;BME280;14817;57.104;-2.094;2022-10-16T04:04:28;98154.00;;;6.13;80.38
27334;BME280;14817;57.104;-2.094;2022-10-16T04:06:54;98156.84;;;6.11;80.29
27334;BME280;14817;57.104;-2.094;2022-10-16T04:09:21;98157.66;;;6.12;79.73
27334;BME280;14817;57.104;-2.094;2022-10-16T04:11:48;98166.19;;;6.07;79.26
27334;BME280;14817;57.104;-2.094;2022-10-16T04:14:15;98183.78;;;6.08;79.02
27334;BME280;14817;57.104;-2.094;2022-10-16T04:16:42;98183.06;;;6.15;78.42
27334;BME280;14817;57.104;-2.094;2022-10-16T04:19:11;98197.34;;;6.13;77.58
27334;BME280;14817;57.104;-2.094;2022-10-16T04:21:38;98205.13;;;6.15;77.13
27334;BME280;14817;57.104;-2.094;2022-10-16T04:24:05;98200.09;;;6.20;76.36
27334;BME280;14817;57.104;-2.094;2022-10-16T04:26:32;98213.69;;;6.25;75.70
27334;BME280;14817;57.104;-2.094;2022-10-16T04:28:59;98227.69;;;6.19;76.08
27334;BME280;14817;57.104;-2.094;2022-10-16T04:33:58;98226.53;;;5.99;77.23
27334;BME280;14817;57.104;-2.094;2022-10-16T04:36:25;98221.47;;;5.89;77.85
27334;BME280;14817;57.104;-2.094;2022-10-16T04:38:54;98222.34;;;5.81;77.70
27334;BME280;14817;57.104;-2.094;2022-10-16T04:41:21;98221.97;;;5.84;77.26
27334;BME280;14817;57.104;-2.094;2022-10-16T04:43:48;98224.13;;;5.89;77.53
27334;BME280;14817;57.104;-2.094;2022-10-16T04:46:15;98230.31;;;5.81;77.17
27334;BME280;14817;57.104;-2.094;2022-10-16T04:48:42;98230.38;;;5.73;77.66
27334;BME280;14817;57.104;-2.094;2022-10-16T04:51:08;98232.22;;;5.72;78.56
27334;BME280;14817;57.104;-2.094;2022-10-16T04:53:35;98237.84;;;5.69;78.82
27334;BME280;14817;57.104;-2.094;2022-10-16T04:56:02;98237.53;;;5.72;79.14
27334;BME280;14817;57.104;-2.094;2022-10-16T04:58:28;98246.97;;;5.75;79.09
27334;BME280;14817;57.104;-2.094;2022-10-16T05:00:56;98254.63;;;5.70;78.60
27334;BME280;14817;57.104;-2.094;2022-10-16T05:03:56;98251.66;;;5.65;78.92
27334;BME280;14817;57.104;-2.094;2022-10-16T05:06:23;98263.84;;;5.59;79.40
27334;BME280;14817;57.104;-2.094;2022-10-16T05:08:50;98264.44;;;5.46;79.75
27334;BME280;14817;57.104;-2.094;2022-10-16T05:11:17;98263.44;;;5.39;80.17
27334;BME280;14817;57.104;-2.094;2022-10-16T05:13:43;98273.38;;;5.45;79.63
27334;BME280;14817;57.104;-2.094;2022-10-16T05:16:10;98280.19;;;5.40;79.78
27334;BME280;14817;57.104;-2.094;2022-10-16T05:18:37;98278.72;;;5.37;80.06
27334;BME280;14817;57.104;-2.094;2022-10-16T05:21:04;98282.56;;;5.35;80.56
27334;BME280;14817;57.104;-2.094;2022-10-16T05:23:33;98287.00;;;5.42;80.65
27334;BME280;14817;57.104;-2.094;2022-10-16T05:25:59;98291.22;;;5.60;80.31
27334;BME280;14817;57.104;-2.094;2022-10-16T05:28:27;98302.25;;;5.71;79.54
27334;BME280;14817;57.104;-2.094;2022-10-16T05:30:55;98303.59;;;5.67;79.71
27334;BME280;14817;57.104;-2.094;2022-10-16T05:33:23;98308.63;;;5.62;79.92
27334;BME280;14817;57.104;-2.094;2022-10-16T05:35:51;98304.38;;;5.53;80.23
27334;BME280;14817;57.104;-2.094;2022-10-16T05:38:18;98317.50;;;5.46;80.60
27334;BME280;14817;57.104;-2.094;2022-10-16T05:40:51;98319.84;;;5.41;81.27
27334;BME280;14817;57.104;-2.094;2022-10-16T05:43:19;98327.19;;;5.31;81.45
27334;BME280;14817;57.104;-2.094;2022-10-16T05:48:23;98337.22;;;5.21;82.31
27334;BME280;14817;57.104;-2.094;2022-10-16T05:51:01;98337.69;;;5.16;82.41
27334;BME280;14817;57.104;-2.094;2022-10-16T05:53:29;98351.47;;;5.11;82.79
27334;BME280;14817;57.104;-2.094;2022-10-16T05:55:56;98348.38;;;5.08;83.03
27334;BME280;14817;57.104;-2.094;2022-10-16T05:58:24;98352.81;;;5.07;83.24
27334;BME280;14817;57.104;-2.094;2022-10-16T06:01:11;98359.47;;;5.03;83.33
27334;BME280;14817;57.104;-2.094;2022-10-16T06:03:39;98361.13;;;5.04;83.61
27334;BME280;14817;57.104;-2.094;2022-10-16T06:06:13;98361.94;;;5.05;83.60
27334;BME280;14817;57.104;-2.094;2022-10-16T06:08:41;98368.13;;;4.97;83.88
27334;BME280;14817;57.104;-2.094;2022-10-16T06:11:10;98364.31;;;4.91;83.99
27334;BME280;14817;57.104;-2.094;2022-10-16T06:13:37;98363.16;;;4.86;84.53
27334;BME280;14817;57.104;-2.094;2022-10-16T06:16:05;98362.50;;;4.84;84.43
27334;BME280;14817;57.104;-2.094;2022-10-16T06:18:32;98371.63;;;4.81;84.67
27334;BME280;14817;57.104;-2.094;2022-10-16T06:20:59;98372.44;;;4.82;84.71
27334;BME280;14817;57.104;-2.094;2022-10-16T06:23:28;98384.88;;;4.73;84.59
27334;BME280;14817;57.104;-2.094;2022-10-16T06:26:04;98389.38;;;4.73;85.18
27334;BME280;14817;57.104;-2.094;2022-10-16T06:28:31;98401.16;;;4.70;84.85
27334;BME280;14817;57.104;-2.094;2022-10-16T06:31:02;98406.09;;;4.65;85.08
27334;BME280;14817;57.104;-2.094;2022-10-16T06:33:34;98405.63;;;4.61;85.38
27334;BME280;14817;57.104;-2.094;2022-10-16T06:36:04;98413.06;;;4.58;85.11
27334;BME280;14817;57.104;-2.094;2022-10-16T06:38:32;98408.94;;;4.63;85.58
27334;BME280;14817;57.104;-2.094;2022-10-16T06:40:58;98406.09;;;4.73;84.72
27334;BME280;14817;57.104;-2.094;2022-10-16T06:43:26;98412.88;;;4.84;83.63
27334;BME280;14817;57.104;-2.094;2022-10-16T06:45:54;98416.19;;;4.86;83.80
27334;BME280;14817;57.104;-2.094;2022-10-16T06:48:22;98426.81;;;4.86;83.67
27334;BME280;14817;57.104;-2.094;2022-10-16T06:51:04;98427.16;;;4.83;84.05
27334;BME280;14817;57.104;-2.094;2022-10-16T06:53:38;98432.94;;;4.86;83.63
27334;BME280;14817;57.104;-2.094;2022-10-16T06:56:27;98436.25;;;4.88;83.36
27334;BME280;14817;57.104;-2.094;2022-10-16T06:58:54;98433.59;;;4.88;82.90
27334;BME280;14817;57.104;-2.094;2022-10-16T07:01:23;98439.56;;;4.90;83.73
27334;BME280;14817;57.104;-2.094;2022-10-16T07:03:50;98449.00;;;5.01;83.05
27334;BME280;14817;57.104;-2.094;2022-10-16T07:06:19;98451.50;;;5.03;82.79
27334;BME280;14817;57.104;-2.094;2022-10-16T07:08:46;98453.63;;;5.07;82.24
27334;BME280;14817;57.104;-2.094;2022-10-16T07:11:16;98462.25;;;5.09;82.05
27334;BME280;14817;57.104;-2.094;2022-10-16T07:13:44;98463.72;;;5.12;81.87
27334;BME280;14817;57.104;-2.094;2022-10-16T07:16:22;98462.25;;;5.09;82.01
27334;BME280;14817;57.104;-2.094;2022-10-16T07:18:49;98478.16;;;5.09;81.43
27334;BME280;14817;57.104;-2.094;2022-10-16T07:21:21;98479.50;;;5.05;82.02
27334;BME280;14817;57.104;-2.094;2022-10-16T07:23:53;98482.66;;;5.09;81.99
27334;BME280;14817;57.104;-2.094;2022-10-16T07:26:20;98493.78;;;5.04;82.19
27334;BME280;14817;57.104;-2.094;2022-10-16T07:28:47;98499.75;;;5.06;81.54
27334;BME280;14817;57.104;-2.094;2022-10-16T07:31:16;98504.88;;;5.08;81.69
27334;BME280;14817;57.104;-2.094;2022-10-16T07:33:44;98518.63;;;5.11;82.08
27334;BME280;14817;57.104;-2.094;2022-10-16T07:36:12;98528.25;;;5.13;81.77
27334;BME280;14817;57.104;-2.094;2022-10-16T07:38:42;98529.75;;;5.15;81.63
27334;BME280;14817;57.104;-2.094;2022-10-16T07:41:11;98539.53;;;5.23;81.42
27334;BME280;14817;57.104;-2.094;2022-10-16T07:43:39;98539.69;;;5.29;81.34
27334;BME280;14817;57.104;-2.094;2022-10-16T07:46:06;98540.00;;;5.43;81.57
27334;BME280;14817;57.104;-2.094;2022-10-16T07:48:34;98543.00;;;6.04;79.95
27334;BME280;14817;57.104;-2.094;2022-10-16T07:51:03;98553.97;;;6.94;77.70
27334;BME280;14817;57.104;-2.094;2022-10-16T07:53:31;98553.00;;;7.48;74.98
27334;BME280;14817;57.104;-2.094;2022-10-16T07:56:03;98556.25;;;8.18;73.18
27334;BME280;14817;57.104;-2.094;2022-10-16T07:58:31;98566.09;;;9.05;69.23
27334;BME280;14817;57.104;-2.094;2022-10-16T08:00:59;98574.34;;;9.10;67.84
27334;BME280;14817;57.104;-2.094;2022-10-16T08:03:29;98574.78;;;9.64;66.41
27334;BME280;14817;57.104;-2.094;2022-10-16T08:05:59;98574.06;;;9.48;67.51
27334;BME280;14817;57.104;-2.094;2022-10-16T08:08:27;98581.81;;;9.65;65.20
27334;BME280;14817;57.104;-2.094;2022-10-16T08:10:54;98610.28;;;10.07;63.88
27334;BME280;14817;57.104;-2.094;2022-10-16T08:13:21;98605.81;;;9.86;65.51
27334;BME280;14817;57.104;-2.094;2022-10-16T08:15:48;98620.75;;;10.09;62.84
27334;BME280;14817;57.104;-2.094;2022-10-16T08:18:15;98617.28;;;10.15;63.83
27334;BME280;14817;57.104;-2.094;2022-10-16T08:20:42;98640.34;;;10.44;63.08
27334;BME280;14817;57.104;-2.094;2022-10-16T08:23:11;98646.72;;;10.91;62.93
27334;BME280;14817;57.104;-2.094;2022-10-16T08:25:39;98653.63;;;10.66;61.87
27334;BME280;14817;57.104;-2.094;2022-10-16T08:28:08;98653.00;;;11.32;60.45
27334;BME280;14817;57.104;-2.094;2022-10-16T08:30:35;98655.03;;;10.61;61.15
27334;BME280;14817;57.104;-2.094;2022-10-16T08:33:04;98656.47;;;11.19;60.43
27334;BME280;14817;57.104;-2.094;2022-10-16T08:35:31;98668.72;;;11.61;59.49
27334;BME280;14817;57.104;-2.094;2022-10-16T08:37:57;98674.91;;;11.75;59.08
27334;BME280;14817;57.104;-2.094;2022-10-16T08:40:28;98675.28;;;11.39;60.01
27334;BME280;14817;57.104;-2.094;2022-10-16T08:43:50;98688.50;;;11.60;59.38
27334;BME280;14817;57.104;-2.094;2022-10-16T08:51:28;98713.47;;;12.68;57.85
27334;BME280;14817;57.104;-2.094;2022-10-16T08:54:03;98723.22;;;12.49;57.86
27334;BME280;14817;57.104;-2.094;2022-10-16T08:56:30;98727.94;;;12.60;57.18
27334;BME280;14817;57.104;-2.094;2022-10-16T08:58:58;98732.59;;;12.98;56.77
27334;BME280;14817;57.104;-2.094;2022-10-16T09:01:41;98737.84;;;13.24;55.52
27334;BME280;14817;57.104;-2.094;2022-10-16T09:07:15;98755.88;;;13.17;56.97
27334;BME280;14817;57.104;-2.094;2022-10-16T09:14:58;98780.00;;;12.52;58.21
27334;BME280;14817;57.104;-2.094;2022-10-16T09:25:32;98817.38;;;12.80;56.92
27334;BME280;14817;57.104;-2.094;2022-10-16T09:28:00;98831.34;;;13.16;57.02
27334;BME280;14817;57.104;-2.094;2022-10-16T09:30:28;98828.22;;;13.39;54.09
27334;BME280;14817;57.104;-2.094;2022-10-16T09:32:58;98827.91;;;12.95;54.88
27334;BME280;14817;57.104;-2.094;2022-10-16T09:35:51;98835.91;;;13.08;54.34
27334;BME280;14817;57.104;-2.094;2022-10-16T09:40:48;98848.56;;;12.81;55.59
27334;BME280;14817;57.104;-2.094;2022-10-16T09:43:41;98859.94;;;12.83;56.12
27334;BME280;14817;57.104;-2.094;2022-10-16T09:49:01;98875.00;;;12.71;58.05
27334;BME280;14817;57.104;-2.094;2022-10-16T09:51:33;98893.00;;;12.64;58.63
27334;BME280;14817;57.104;-2.094;2022-10-16T09:54:16;98908.06;;;11.83;59.32
27334;BME280;14817;57.104;-2.094;2022-10-16T09:56:43;98918.59;;;12.33;58.85
27334;BME280;14817;57.104;-2.094;2022-10-16T09:59:22;98933.84;;;12.39;59.03
27334;BME280;14817;57.104;-2.094;2022-10-16T10:01:55;98925.28;;;12.02;59.01
27334;BME280;14817;57.104;-2.094;2022-10-16T10:04:23;98934.47;;;12.41;58.74
27334;BME280;14817;57.104;-2.094;2022-10-16T10:06:54;98934.72;;;12.60;58.42
27334;BME280;14817;57.104;-2.094;2022-10-16T10:12:03;98938.41;;;13.52;53.69
27334;BME280;14817;57.104;-2.094;2022-10-16T10:14:44;98953.13;;;12.96;53.98
27334;BME280;14817;57.104;-2.094;2022-10-16T10:20:14;98960.38;;;12.96;55.40
27334;BME280;14817;57.104;-2.094;2022-10-16T10:22:43;98967.41;;;13.23;53.98
27334;BME280;14817;57.104;-2.094;2022-10-16T10:30:35;98984.38;;;13.17;54.63
27334;BME280;14817;57.104;-2.094;2022-10-16T10:44:20;99042.19;;;12.80;55.49
27334;BME280;14817;57.104;-2.094;2022-10-16T10:46:57;99057.91;;;12.76;55.40
27334;BME280;14817;57.104;-2.094;2022-10-16T10:54:54;99069.91;;;12.80;56.04
27334;BME280;14817;57.104;-2.094;2022-10-16T10:57:29;99071.28;;;12.63;55.63
27334;BME280;14817;57.104;-2.094;2022-10-16T11:08:00;99100.94;;;13.03;56.41
27334;BME280;14817;57.104;-2.094;2022-10-16T11:10:42;99101.19;;;13.15;55.87
27334;BME280;14817;57.104;-2.094;2022-10-16T11:15:47;99118.22;;;13.68;55.33
27334;BME280;14817;57.104;-2.094;2022-10-16T11:18:24;99115.75;;;13.54;55.92
27334;BME280;14817;57.104;-2.094;2022-10-16T11:20:57;99133.13;;;13.44;55.81
27334;BME280;14817;57.104;-2.094;2022-10-16T11:23:41;99130.44;;;13.51;55.37
27334;BME280;14817;57.104;-2.094;2022-10-16T11:26:17;99145.00;;;13.08;57.59
27334;BME280;14817;57.104;-2.094;2022-10-16T11:28:49;99149.59;;;13.21;56.78
27334;BME280;14817;57.104;-2.094;2022-10-16T11:33:54;99176.94;;;12.77;59.42
27334;BME280;14817;57.104;-2.094;2022-10-16T11:36:39;99175.47;;;12.74;57.60
27334;BME280;14817;57.104;-2.094;2022-10-16T11:41:55;99192.38;;;12.68;57.98
27334;BME280;14817;57.104;-2.094;2022-10-16T11:47:41;99207.41;;;12.56;58.45
27334;BME280;14817;57.104;-2.094;2022-10-16T11:50:31;99222.72;;;12.62;58.35
27334;BME280;14817;57.104;-2.094;2022-10-16T11:55:47;99238.31;;;12.45;58.16
27334;BME280;14817;57.104;-2.094;2022-10-16T12:01:01;99252.19;;;11.99;59.43
27334;BME280;14817;57.104;-2.094;2022-10-16T12:03:43;99264.28;;;11.88;59.42
27334;BME280;14817;57.104;-2.094;2022-10-16T12:09:25;99286.44;;;12.18;59.50
27334;BME280;14817;57.104;-2.094;2022-10-16T12:11:53;99303.31;;;12.62;59.05
27334;BME280;14817;57.104;-2.094;2022-10-16T12:20:18;99309.31;;;12.99;55.14
27334;BME280;14817;57.104;-2.094;2022-10-16T12:22:52;99324.28;;;13.08;55.13
27334;BME280;14817;57.104;-2.094;2022-10-16T12:25:34;99325.09;;;13.08;55.10
27334;BME280;14817;57.104;-2.094;2022-10-16T12:30:35;99337.34;;;12.83;54.32
27334;BME280;14817;57.104;-2.094;2022-10-16T12:33:28;99334.97;;;12.73;54.81
27334;BME280;14817;57.104;-2.094;2022-10-16T12:35:51;99342.72;;;12.83;54.71
27334;BME280;14817;57.104;-2.094;2022-10-16T12:38:21;99345.09;;;12.71;55.43
27334;BME280;14817;57.104;-2.094;2022-10-16T12:41:07;99342.19;;;12.66;55.62
27334;BME280;14817;57.104;-2.094;2022-10-16T12:43:45;99357.97;;;12.54;55.51
27334;BME280;14817;57.104;-2.094;2022-10-16T12:48:41;99357.25;;;12.67;55.47
27334;BME280;14817;57.104;-2.094;2022-10-16T13:29:32;99441.81;;;12.50;54.96
27334;BME280;14817;57.104;-2.094;2022-10-16T13:32:14;99449.66;;;12.30;55.33
27334;BME280;14817;57.104;-2.094;2022-10-16T13:34:46;99444.75;;;12.33;54.65
27334;BME280;14817;57.104;-2.094;2022-10-16T13:37:24;99445.47;;;12.42;54.48
27334;BME280;14817;57.104;-2.094;2022-10-16T13:40:04;99443.09;;;12.32;54.63
27334;BME280;14817;57.104;-2.094;2022-10-16T13:42:34;99459.13;;;12.25;54.78
27334;BME280;14817;57.104;-2.094;2022-10-16T13:45:01;99462.81;;;12.24;54.69
27334;BME280;14817;57.104;-2.094;2022-10-16T13:47:29;99478.28;;;12.22;53.75
27334;BME280;14817;57.104;-2.094;2022-10-16T13:52:31;99500.31;;;12.18;52.80
27334;BME280;14817;57.104;-2.094;2022-10-16T13:54:58;99517.72;;;12.22;52.73
27334;BME280;14817;57.104;-2.094;2022-10-16T13:57:28;99526.97;;;12.19;52.23
27334;BME280;14817;57.104;-2.094;2022-10-16T13:59:55;99530.50;;;12.20;52.74
27334;BME280;14817;57.104;-2.094;2022-10-16T14:04:49;99549.50;;;12.18;52.30
27334;BME280;14817;57.104;-2.094;2022-10-16T14:07:34;99553.75;;;12.13;52.60
27334;BME280;14817;57.104;-2.094;2022-10-16T14:10:07;99557.16;;;12.07;52.54
27334;BME280;14817;57.104;-2.094;2022-10-16T14:12:45;99563.44;;;12.14;52.69
27334;BME280;14817;57.104;-2.094;2022-10-16T14:15:16;99560.41;;;12.02;52.62
27334;BME280;14817;57.104;-2.094;2022-10-16T14:17:45;99561.16;;;11.96;52.48
27334;BME280;14817;57.104;-2.094;2022-10-16T14:20:15;99565.41;;;12.05;52.61
27334;BME280;14817;57.104;-2.094;2022-10-16T14:22:43;99568.94;;;12.05;52.26
27334;BME280;14817;57.104;-2.094;2022-10-16T14:27:55;99577.16;;;12.04;53.87
27334;BME280;14817;57.104;-2.094;2022-10-16T14:30:24;99583.81;;;12.08;53.27
27334;BME280;14817;57.104;-2.094;2022-10-16T14:35:33;99578.63;;;12.07;53.76
27334;BME280;14817;57.104;-2.094;2022-10-16T14:38:01;99582.88;;;12.01;53.33
27334;BME280;14817;57.104;-2.094;2022-10-16T14:40:34;99579.75;;;11.97;54.23
27334;BME280;14817;57.104;-2.094;2022-10-16T14:43:02;99581.78;;;11.95;54.35
27334;BME280;14817;57.104;-2.094;2022-10-16T14:45:35;99589.19;;;11.93;53.95
27334;BME280;14817;57.104;-2.094;2022-10-16T14:48:02;99590.09;;;12.00;53.47
27334;BME280;14817;57.104;-2.094;2022-10-16T14:50:30;99605.00;;;11.88;53.00
27334;BME280;14817;57.104;-2.094;2022-10-16T14:52:58;99604.31;;;11.86;53.69
27334;BME280;14817;57.104;-2.094;2022-10-16T14:55:25;99605.69;;;11.82;53.59
27334;BME280;14817;57.104;-2.094;2022-10-16T14:57:52;99599.78;;;11.87;53.62
27334;BME280;14817;57.104;-2.094;2022-10-16T15:00:26;99599.03;;;11.78;53.70
27334;BME280;14817;57.104;-2.094;2022-10-16T15:02:52;99609.56;;;11.79;53.61
27334;BME280;14817;57.104;-2.094;2022-10-16T15:05:22;99608.00;;;11.70;54.48
27334;BME280;14817;57.104;-2.094;2022-10-16T15:07:50;99612.72;;;11.68;53.76
27334;BME280;14817;57.104;-2.094;2022-10-16T15:10:17;99620.09;;;11.66;54.20
27334;BME280;14817;57.104;-2.094;2022-10-16T15:12:44;99629.53;;;11.62;55.39
27334;BME280;14817;57.104;-2.094;2022-10-16T15:15:53;99633.56;;;11.58;54.94
27334;BME280;14817;57.104;-2.094;2022-10-16T15:18:18;99643.47;;;11.57;55.60
27334;BME280;14817;57.104;-2.094;2022-10-16T15:20:49;99647.63;;;11.60;54.69
27334;BME280;14817;57.104;-2.094;2022-10-16T15:23:21;99653.16;;;11.58;54.95
27334;BME280;14817;57.104;-2.094;2022-10-16T15:25:53;99658.38;;;11.60;55.53
27334;BME280;14817;57.104;-2.094;2022-10-16T15:28:22;99656.06;;;11.57;55.21
27334;BME280;14817;57.104;-2.094;2022-10-16T15:30:51;99668.16;;;11.53;54.53
27334;BME280;14817;57.104;-2.094;2022-10-16T15:33:20;99667.31;;;11.52;54.07
27334;BME280;14817;57.104;-2.094;2022-10-16T15:35:50;99679.09;;;11.43;55.13
27334;BME280;14817;57.104;-2.094;2022-10-16T15:38:20;99688.34;;;11.40;55.05
27334;BME280;14817;57.104;-2.094;2022-10-16T15:40:48;99695.41;;;11.41;54.39
27334;BME280;14817;57.104;-2.094;2022-10-16T15:43:15;99697.94;;;11.35;55.44
27334;BME280;14817;57.104;-2.094;2022-10-16T15:45:42;99702.34;;;11.28;56.39
27334;BME280;14817;57.104;-2.094;2022-10-16T15:48:12;99700.66;;;11.50;52.67